createdAt,value
2019-01-24T00:01:03.292Z,35.20
2019-01-24T00:03:31.271Z,40.13
2019-01-24T00:05:58.930Z,43.07
2019-01-24T00:08:27.491Z,40.83
2019-01-24T00:10:55.188Z,33.83
2019-01-24T00:13:23.143Z,32.47
2019-01-24T00:15:50.871Z,39.67
2019-01-24T00:18:18.823Z,37.17
2019-01-24T00:20:46.763Z,37.70
2019-01-24T00:23:14.737Z,38.27
2019-01-24T00:25:42.679Z,37.93
2019-01-24T00:28:10.757Z,39.83
2019-01-24T00:30:38.473Z,41.87
2019-01-24T00:33:06.460Z,42.57
2019-01-24T00:35:34.426Z,41.77
2019-01-24T00:38:02.299Z,37.63
2019-01-24T00:40:30.237Z,42.27
2019-01-24T00:42:58.165Z,41.03
2019-01-24T00:45:26.515Z,47.30
2019-01-24T00:47:54.478Z,43.47
2019-01-24T00:50:22.454Z,39.63
2019-01-24T00:52:51.010Z,39.87
2019-01-24T00:55:19.286Z,45.73
2019-01-24T00:57:47.297Z,35.20
2019-01-24T01:00:17.209Z,39.60
2019-01-24T01:02:45.181Z,38.90
2019-01-24T01:05:12.902Z,41.63
2019-01-24T01:07:41.803Z,41.57
2019-01-24T01:10:10.279Z,37.73
2019-01-24T01:12:38.258Z,30.73
2019-01-24T01:15:07.678Z,37.17
2019-01-24T01:17:35.659Z,34.80
2019-01-24T01:20:03.628Z,36.43
2019-01-24T01:22:31.336Z,37.80
2019-01-24T01:24:59.300Z,39.03
2019-01-24T01:27:26.744Z,38.00
2019-01-24T01:29:54.882Z,33.50
2019-01-24T01:32:22.294Z,26.57
2019-01-24T01:34:49.996Z,19.70
2019-01-24T01:37:18.776Z,38.63
2019-01-24T01:39:46.740Z,33.97
2019-01-24T01:42:14.726Z,33.47
2019-01-24T01:44:43.001Z,39.70
2019-01-24T01:47:10.697Z,39.97
2019-01-24T01:49:39.284Z,41.23
2019-01-24T01:52:07.529Z,43.97
2019-01-24T01:54:35.210Z,39.90
2019-01-24T01:57:03.737Z,43.37
2019-01-24T01:59:31.723Z,37.47
2019-01-24T02:02:00.031Z,35.47
2019-01-24T02:04:27.184Z,38.67
2019-01-24T02:06:55.142Z,39.40
2019-01-24T02:09:23.693Z,43.10
2019-01-24T02:11:50.863Z,39.77
2019-01-24T02:14:19.461Z,38.53
2019-01-24T02:16:47.416Z,36.53
2019-01-24T02:19:15.413Z,38.93
2019-01-24T02:21:43.756Z,40.10
2019-01-24T02:24:11.722Z,45.60
2019-01-24T02:26:39.658Z,36.40
2019-01-24T02:29:07.614Z,39.90
2019-01-24T02:31:35.572Z,40.63
2019-01-24T02:34:03.580Z,42.47
2019-01-24T02:36:34.245Z,43.10
2019-01-24T02:39:05.083Z,40.23
2019-01-24T02:41:34.848Z,40.97
2019-01-24T02:44:05.308Z,37.20
2019-01-24T02:46:33.876Z,42.43
2019-01-24T02:49:03.064Z,38.37
2019-01-24T02:51:31.505Z,36.50
2019-01-24T02:54:00.348Z,39.10
2019-01-24T02:56:28.957Z,41.23
2019-01-24T02:58:56.960Z,40.70
2019-01-24T03:01:24.936Z,42.73
2019-01-24T03:03:53.218Z,43.27
2019-01-24T03:06:21.556Z,42.27
2019-01-24T03:08:49.229Z,41.37
2019-01-24T03:11:17.804Z,38.37
2019-01-24T03:13:45.687Z,40.03
2019-01-24T03:16:13.684Z,39.27
2019-01-24T03:18:41.641Z,36.57
2019-01-24T03:21:09.358Z,40.90
2019-01-24T03:23:37.334Z,37.23
2019-01-24T03:26:05.905Z,23.50
2019-01-24T03:28:34.403Z,22.13
2019-01-24T03:31:03.135Z,25.73
2019-01-24T03:33:31.286Z,16.53
2019-01-24T03:35:58.987Z,39.30
2019-01-24T03:38:27.271Z,39.20
2019-01-24T03:40:55.247Z,41.53
2019-01-24T03:43:22.951Z,35.13
2019-01-24T03:45:50.930Z,19.37
2019-01-24T03:48:18.919Z,37.80
2019-01-24T03:50:47.237Z,34.10
2019-01-24T03:53:15.196Z,36.87
2019-01-24T03:55:43.125Z,38.40
2019-01-24T03:58:11.110Z,40.50
2019-01-24T04:00:39.091Z,41.30
2019-01-24T04:03:07.380Z,39.07
2019-01-24T04:05:35.461Z,37.77
2019-01-24T04:08:03.441Z,37.57
2019-01-24T04:10:31.415Z,36.30
2019-01-24T04:12:59.817Z,38.27
2019-01-24T04:15:27.791Z,42.93
2019-01-24T04:17:55.735Z,34.33
2019-01-24T04:20:23.714Z,35.60
2019-01-24T04:22:51.688Z,40.70
2019-01-24T04:25:19.647Z,43.17
2019-01-24T04:27:47.770Z,39.13
2019-01-24T04:30:16.314Z,42.90
2019-01-24T04:32:44.019Z,40.67
2019-01-24T04:35:19.386Z,43.67
2019-01-24T04:37:40.596Z,43.00
2019-01-24T04:40:10.414Z,43.83
2019-01-24T04:42:38.407Z,42.57
2019-01-24T04:45:06.715Z,42.10
2019-01-24T04:47:34.383Z,44.47
2019-01-24T04:50:02.485Z,44.83
2019-01-24T04:52:30.199Z,45.27
2019-01-24T04:54:57.608Z,40.93
2019-01-24T04:57:25.307Z,41.17
2019-01-24T04:59:53.252Z,40.60
2019-01-24T05:02:21.216Z,42.23
2019-01-24T05:04:48.927Z,41.43
2019-01-24T05:07:16.999Z,42.03
2019-01-24T05:09:44.686Z,42.87
2019-01-24T05:12:12.679Z,41.83
2019-01-24T05:14:40.636Z,40.33
2019-01-24T05:17:08.617Z,40.00
2019-01-24T05:19:36.618Z,36.30
2019-01-24T05:22:07.871Z,38.93
2019-01-24T05:24:38.575Z,39.80
2019-01-24T05:27:07.878Z,39.40
2019-01-24T05:29:35.810Z,37.73
2019-01-24T05:32:03.776Z,40.53
2019-01-24T05:34:31.220Z,38.37
2019-01-24T05:36:58.897Z,43.07
2019-01-24T05:39:26.843Z,45.23
2019-01-24T05:41:55.074Z,47.57
2019-01-24T05:44:22.980Z,46.97
2019-01-24T05:46:50.665Z,43.27
2019-01-24T05:49:18.973Z,46.73
2019-01-24T05:51:46.931Z,42.07
2019-01-24T05:54:14.613Z,41.77
2019-01-24T05:56:42.343Z,43.93
2019-01-24T05:59:10.301Z,39.73
2019-01-24T06:01:38.004Z,42.33
2019-01-24T06:04:05.966Z,43.27
2019-01-24T06:06:33.920Z,42.47
2019-01-24T06:09:01.481Z,44.03
2019-01-24T06:11:29.494Z,42.53
2019-01-24T06:13:57.160Z,44.70
2019-01-24T06:16:25.123Z,39.10
2019-01-24T06:18:53.053Z,42.53
2019-01-24T06:21:21.003Z,45.03
2019-01-24T06:23:48.723Z,43.53
2019-01-24T06:26:16.458Z,46.70
2019-01-24T06:28:44.401Z,44.03
2019-01-24T06:31:12.347Z,44.20
2019-01-24T06:33:40.491Z,46.03
2019-01-24T06:36:08.199Z,44.97
2019-01-24T06:38:35.888Z,44.97
2019-01-24T06:41:04.064Z,45.03
2019-01-24T06:43:31.994Z,45.00
2019-01-24T06:45:59.684Z,46.87
2019-01-24T06:48:27.423Z,43.90
2019-01-24T06:50:55.343Z,44.67
2019-01-24T06:53:23.310Z,47.10
2019-01-24T06:55:51.922Z,47.37
2019-01-24T06:58:19.889Z,49.20
2019-01-24T07:00:47.574Z,52.13
2019-01-24T07:03:15.296Z,44.93
2019-01-24T07:05:42.980Z,46.13
2019-01-24T07:08:10.681Z,45.90
2019-01-24T07:10:39.063Z,51.23
2019-01-24T07:13:07.544Z,46.13
2019-01-24T07:15:35.588Z,48.93
2019-01-24T07:18:03.341Z,48.30
2019-01-24T07:20:31.039Z,45.93
2019-01-24T07:22:59.019Z,44.90
2019-01-24T07:25:27.997Z,46.30
2019-01-24T07:27:55.963Z,43.73
2019-01-24T07:30:23.925Z,46.77
2019-01-24T07:32:52.220Z,46.03
2019-01-24T07:35:19.928Z,44.57
2019-01-24T07:37:47.901Z,50.43
2019-01-24T07:40:16.422Z,51.10
2019-01-24T07:42:44.198Z,48.17
2019-01-24T07:45:16.425Z,45.80
2019-01-24T07:47:44.397Z,47.63
2019-01-24T07:50:12.991Z,45.67
2019-01-24T07:52:40.941Z,46.87
2019-01-24T07:55:10.862Z,47.93
2019-01-24T07:57:38.671Z,54.97
2019-01-24T08:00:08.129Z,54.13
2019-01-24T08:02:36.454Z,49.83
2019-01-24T08:05:04.499Z,51.10
2019-01-24T08:07:32.474Z,47.63
2019-01-24T08:10:00.679Z,52.23
2019-01-24T08:12:29.231Z,49.73
2019-01-24T08:14:57.185Z,48.97
2019-01-24T08:17:25.773Z,46.07
2019-01-24T08:19:53.708Z,51.30
2019-01-24T08:22:22.837Z,45.77
2019-01-24T08:24:50.862Z,51.23
2019-01-24T08:27:18.806Z,50.77
2019-01-24T08:29:46.768Z,48.40
2019-01-24T08:32:14.965Z,51.00
2019-01-24T08:34:42.670Z,46.53
2019-01-24T08:37:10.648Z,45.80
2019-01-24T08:39:39.055Z,45.40
2019-01-24T08:42:07.016Z,48.87
2019-01-24T08:44:34.441Z,45.97
2019-01-24T08:47:02.582Z,46.67
2019-01-24T08:49:30.527Z,49.00
2019-01-24T08:51:59.082Z,48.77
2019-01-24T08:54:27.068Z,51.70
2019-01-24T08:56:54.737Z,42.33
2019-01-24T08:59:29.280Z,48.27
2019-01-24T09:01:51.223Z,50.70
2019-01-24T09:04:19.786Z,46.13
2019-01-24T09:06:47.765Z,50.17
2019-01-24T09:09:16.012Z,49.70
2019-01-24T09:11:43.680Z,49.07
2019-01-24T09:14:11.741Z,50.13
2019-01-24T09:16:39.195Z,49.50
2019-01-24T09:19:07.182Z,49.07
2019-01-24T09:21:35.162Z,44.07
2019-01-24T09:24:03.170Z,47.63
2019-01-24T09:26:31.663Z,45.07
2019-01-24T09:28:59.050Z,50.73
2019-01-24T09:31:26.783Z,48.33
2019-01-24T09:33:54.756Z,54.20
2019-01-24T09:36:22.453Z,45.90
2019-01-24T09:38:50.446Z,49.07
2019-01-24T09:41:18.376Z,47.63
2019-01-24T09:43:46.838Z,43.90
2019-01-24T09:46:14.939Z,44.33
2019-01-24T09:48:42.646Z,43.30
2019-01-24T09:51:12.198Z,44.07
2019-01-24T09:53:40.190Z,48.17
2019-01-24T09:56:08.169Z,47.30
2019-01-24T09:58:36.127Z,49.23
2019-01-24T10:01:04.000Z,49.90
2019-01-24T10:03:31.666Z,47.87
2019-01-24T10:05:59.636Z,48.77
2019-01-24T10:08:27.211Z,55.07
2019-01-24T10:10:54.912Z,51.77
2019-01-24T10:13:22.877Z,47.70
2019-01-24T10:15:51.120Z,49.60
2019-01-24T10:18:21.706Z,50.27
2019-01-24T10:20:47.367Z,52.97
2019-01-24T10:23:14.829Z,48.97
2019-01-24T10:25:43.419Z,53.87
2019-01-24T10:28:11.627Z,52.63
2019-01-24T10:30:43.142Z,51.37
2019-01-24T10:33:07.743Z,54.70
2019-01-24T10:35:35.716Z,48.10
2019-01-24T10:38:03.767Z,53.00
2019-01-24T10:40:32.887Z,51.93
2019-01-24T10:43:00.875Z,52.00
2019-01-24T10:45:29.678Z,55.33
2019-01-24T10:47:57.363Z,47.83
2019-01-24T10:50:25.521Z,54.87
2019-01-24T10:52:53.521Z,48.97
2019-01-24T10:55:22.454Z,52.27
2019-01-24T10:57:50.856Z,51.70
2019-01-24T11:00:22.846Z,55.53
2019-01-24T11:02:52.035Z,56.57
2019-01-24T11:05:20.054Z,55.10
2019-01-24T11:07:48.074Z,49.90
2019-01-24T11:10:16.741Z,56.63
2019-01-24T11:12:44.736Z,54.07
2019-01-24T11:15:14.644Z,54.60
2019-01-24T11:17:42.949Z,55.10
2019-01-24T11:20:11.679Z,55.40
2019-01-24T11:22:51.440Z,54.30
2019-01-24T11:25:21.031Z,52.67
2019-01-24T11:27:48.712Z,54.20
2019-01-24T11:30:17.679Z,54.50
2019-01-24T11:32:45.673Z,55.13
2019-01-24T11:35:13.939Z,54.37
2019-01-24T11:37:41.394Z,55.65
2019-01-24T11:40:11.021Z,62.33
2019-01-24T11:42:39.095Z,57.33
2019-01-24T11:45:08.680Z,54.40
2019-01-24T11:47:36.355Z,54.97
2019-01-24T11:50:04.332Z,58.63
2019-01-24T11:52:32.424Z,54.53
2019-01-24T11:55:00.394Z,56.87
2019-01-24T11:57:28.334Z,56.87
2019-01-24T11:59:55.818Z,54.97
2019-01-24T12:02:23.763Z,53.07
2019-01-24T12:04:52.301Z,53.30
2019-01-24T12:07:20.276Z,54.42
2019-01-24T12:09:47.970Z,52.58
2019-01-24T12:12:15.663Z,56.95
2019-01-24T12:14:44.104Z,56.53
2019-01-24T12:17:12.071Z,54.03
2019-01-24T12:19:40.173Z,54.53
2019-01-24T12:22:08.164Z,52.05
2019-01-24T12:24:36.168Z,54.30
2019-01-24T12:27:04.165Z,54.72
2019-01-24T12:29:33.844Z,53.80
2019-01-24T12:32:01.827Z,52.67
2019-01-24T12:34:29.530Z,56.20
2019-01-24T12:36:57.984Z,55.55
2019-01-24T12:39:26.024Z,53.00
2019-01-24T12:41:53.967Z,49.55
2019-01-24T12:44:21.991Z,49.28
2019-01-24T12:46:49.953Z,52.88
2019-01-24T12:49:17.883Z,54.03
2019-01-24T12:51:46.058Z,52.42
2019-01-24T12:54:14.047Z,48.33
2019-01-24T12:56:42.656Z,50.77
2019-01-24T12:59:10.662Z,49.47
2019-01-24T13:01:38.348Z,52.00
2019-01-24T13:04:06.340Z,50.08
2019-01-24T13:06:34.634Z,48.93
2019-01-24T13:09:03.205Z,49.23
2019-01-24T13:11:31.151Z,50.60
2019-01-24T13:13:58.867Z,51.63
2019-01-24T13:16:26.815Z,54.10
2019-01-24T13:18:54.746Z,46.80
2019-01-24T13:21:22.899Z,48.83
2019-01-24T13:23:50.598Z,49.50
2019-01-24T13:26:18.564Z,46.63
2019-01-24T13:28:46.825Z,47.90
2019-01-24T13:31:14.770Z,52.40
2019-01-24T13:33:42.727Z,54.03
2019-01-24T13:36:10.711Z,51.27
2019-01-24T13:38:38.672Z,49.43
2019-01-24T13:41:06.672Z,57.03
2019-01-24T13:43:34.702Z,50.17
2019-01-24T13:46:02.653Z,53.13
2019-01-24T13:48:30.356Z,55.70
2019-01-24T13:50:58.371Z,55.80
2019-01-24T13:53:26.335Z,50.60
2019-01-24T13:55:54.049Z,52.05
2019-01-24T13:58:22.014Z,51.10
2019-01-24T14:00:49.990Z,52.08
2019-01-24T14:03:42.098Z,47.77
2019-01-24T14:06:05.802Z,55.03
2019-01-24T14:08:33.765Z,50.73
2019-01-24T14:11:01.741Z,56.63
2019-01-24T14:13:29.685Z,54.10
2019-01-24T14:15:57.633Z,55.38
2019-01-24T14:18:25.342Z,50.28
2019-01-24T14:20:53.349Z,51.07
2019-01-24T14:23:21.934Z,53.22
2019-01-24T14:25:49.972Z,52.63
2019-01-24T14:28:17.929Z,52.63
2019-01-24T14:30:45.599Z,49.83
2019-01-24T14:33:13.607Z,52.40
2019-01-24T14:35:41.312Z,54.60
2019-01-24T14:38:09.317Z,54.80
2019-01-24T14:40:37.612Z,51.20
2019-01-24T14:43:05.407Z,51.43
2019-01-24T14:45:33.386Z,53.80
2019-01-24T14:48:01.733Z,48.77
2019-01-24T14:50:29.668Z,55.17
2019-01-24T14:52:57.651Z,54.23
2019-01-24T14:55:25.867Z,58.37
2019-01-24T14:57:53.840Z,50.92
2019-01-24T15:00:26.084Z,52.28
2019-01-24T15:02:54.455Z,51.90
2019-01-24T15:05:22.168Z,51.27
2019-01-24T15:07:50.206Z,53.37
2019-01-24T15:10:18.201Z,54.60
2019-01-24T15:12:46.174Z,51.77
2019-01-24T15:15:14.183Z,53.37
2019-01-24T15:17:42.450Z,49.97
2019-01-24T15:20:11.070Z,53.40
2019-01-24T15:22:39.143Z,55.50
2019-01-24T15:25:07.914Z,53.77
2019-01-24T15:27:35.935Z,51.80
2019-01-24T15:30:04.432Z,51.23
2019-01-24T15:32:32.492Z,50.33
2019-01-24T15:35:00.412Z,48.77
2019-01-24T15:37:28.090Z,54.67
2019-01-24T15:39:56.052Z,54.17
2019-01-24T15:42:23.985Z,47.40
2019-01-24T15:44:51.962Z,48.67
2019-01-24T15:47:19.920Z,48.83
2019-01-24T15:49:47.886Z,51.30
2019-01-24T15:52:15.823Z,47.20
2019-01-24T15:54:44.371Z,52.90
2019-01-24T15:57:12.338Z,51.50
2019-01-24T15:59:40.013Z,54.87
2019-01-24T16:02:07.710Z,48.47
2019-01-24T16:04:36.246Z,55.90
2019-01-24T16:07:04.157Z,51.40
2019-01-24T16:09:32.111Z,53.47
2019-01-24T16:12:00.073Z,56.17
2019-01-24T16:14:28.011Z,51.67
2019-01-24T16:16:55.967Z,53.40
2019-01-24T16:19:23.895Z,56.70
2019-01-24T16:21:51.865Z,53.37
2019-01-24T16:24:20.369Z,52.47
2019-01-24T16:26:48.450Z,55.63
2019-01-24T16:29:16.371Z,53.80
2019-01-24T16:31:44.118Z,52.30
2019-01-24T16:34:12.082Z,51.20
2019-01-24T16:36:39.761Z,47.53
2019-01-24T16:39:08.569Z,54.90
2019-01-24T16:41:36.286Z,52.53
2019-01-24T16:44:04.250Z,49.70
2019-01-24T16:46:33.024Z,48.70
2019-01-24T16:49:00.985Z,50.43
2019-01-24T16:51:28.905Z,51.87
2019-01-24T16:53:56.781Z,56.33
2019-01-24T16:56:24.754Z,57.37
2019-01-24T16:58:52.460Z,54.83
2019-01-24T17:01:21.560Z,51.37
2019-01-24T17:03:49.587Z,58.00
2019-01-24T17:06:17.253Z,53.97
2019-01-24T17:08:45.777Z,50.07
2019-01-24T17:11:13.710Z,52.20
2019-01-24T17:13:41.712Z,49.87
2019-01-24T17:16:09.855Z,55.83
2019-01-24T17:18:37.825Z,53.77
2019-01-24T17:21:05.821Z,51.37
2019-01-24T17:23:33.808Z,55.80
2019-01-24T17:26:01.783Z,58.00
2019-01-24T17:28:30.397Z,53.10
2019-01-24T17:30:58.399Z,54.70
2019-01-24T17:33:26.347Z,58.67
2019-01-24T17:35:54.295Z,58.87
2019-01-24T17:38:23.978Z,57.90
2019-01-24T17:40:50.040Z,60.53
2019-01-24T17:43:18.018Z,55.37
2019-01-24T17:45:46.270Z,61.20
2019-01-24T17:48:14.211Z,70.63
2019-01-24T17:50:41.875Z,54.60
2019-01-24T17:53:09.608Z,58.10
2019-01-24T17:55:39.076Z,60.10
2019-01-24T17:58:08.129Z,51.27
2019-01-24T18:00:37.546Z,50.60
2019-01-24T18:03:05.615Z,56.73
2019-01-24T18:05:33.587Z,55.23
2019-01-24T18:08:01.873Z,58.33
2019-01-24T18:10:29.829Z,54.43
2019-01-24T18:12:57.777Z,62.60
2019-01-24T18:15:28.977Z,57.37
2019-01-24T18:17:56.686Z,60.60
2019-01-24T18:20:25.654Z,49.33
2019-01-24T18:22:54.088Z,49.07
2019-01-24T18:25:21.794Z,48.97
2019-01-24T18:27:49.735Z,49.30
2019-01-24T18:30:19.539Z,54.47
2019-01-24T18:32:47.895Z,56.70
2019-01-24T18:35:15.987Z,53.70
2019-01-24T18:37:43.981Z,54.63
2019-01-24T18:40:12.427Z,56.90
2019-01-24T18:42:39.920Z,57.33
2019-01-24T18:45:10.204Z,65.13
2019-01-24T18:47:38.892Z,57.87
2019-01-24T18:50:09.409Z,46.97
2019-01-24T18:52:37.398Z,63.20
2019-01-24T18:55:05.211Z,61.27
2019-01-24T18:57:33.208Z,63.87
2019-01-24T19:00:01.197Z,62.03
2019-01-24T19:02:29.146Z,62.70
2019-01-24T19:04:57.109Z,53.80
2019-01-24T19:07:25.089Z,59.30
2019-01-24T19:09:53.032Z,63.43
2019-01-24T19:12:20.965Z,64.63
2019-01-24T19:14:49.007Z,62.10
2019-01-24T19:17:16.938Z,61.17
2019-01-24T19:19:44.892Z,54.60
2019-01-24T19:22:12.649Z,56.67
2019-01-24T19:24:41.090Z,58.87
2019-01-24T19:27:09.024Z,54.20
2019-01-24T19:29:36.967Z,53.83
2019-01-24T19:32:05.061Z,55.03
2019-01-24T19:34:32.769Z,57.27
2019-01-24T19:37:00.755Z,56.33
2019-01-24T19:39:28.475Z,55.97
2019-01-24T19:41:56.421Z,52.20
2019-01-24T19:44:24.448Z,54.97
2019-01-24T19:46:52.367Z,61.43
2019-01-24T19:49:20.941Z,56.40
2019-01-24T19:51:48.967Z,68.67
2019-01-24T19:54:16.949Z,55.33
2019-01-24T19:56:44.891Z,55.13
2019-01-24T19:59:12.843Z,47.43
2019-01-24T20:01:40.816Z,59.40
2019-01-24T20:04:08.795Z,50.13
2019-01-24T20:06:36.961Z,55.73
2019-01-24T20:09:06.129Z,68.00
2019-01-24T20:11:34.107Z,55.33
2019-01-24T20:14:02.197Z,54.80
2019-01-24T20:16:29.897Z,57.43
2019-01-24T20:18:57.601Z,51.63
2019-01-24T20:21:25.650Z,55.63
2019-01-24T20:23:53.702Z,55.37
2019-01-24T20:26:22.387Z,53.13
2019-01-24T20:28:50.156Z,54.93
2019-01-24T20:31:18.177Z,56.77
2019-01-24T20:33:46.514Z,48.00
2019-01-24T20:36:14.577Z,54.93
2019-01-24T20:38:42.317Z,52.40
2019-01-24T20:41:10.355Z,53.60
2019-01-24T20:43:38.762Z,55.80
2019-01-24T20:46:06.811Z,56.70
2019-01-24T20:48:34.820Z,52.57
2019-01-24T20:51:02.571Z,54.83
2019-01-24T20:53:31.204Z,59.90
2019-01-24T20:55:58.765Z,57.87
2019-01-24T20:58:27.548Z,54.53
2019-01-24T21:00:55.600Z,50.13
2019-01-24T21:03:23.678Z,46.37
2019-01-24T21:05:51.532Z,50.33
2019-01-24T21:08:19.036Z,52.87
2019-01-24T21:10:47.041Z,59.43
2019-01-24T21:13:15.133Z,61.23
2019-01-24T21:15:42.909Z,59.53
2019-01-24T21:18:10.988Z,60.73
2019-01-24T21:20:38.824Z,49.20
2019-01-24T21:23:06.845Z,59.00
2019-01-24T21:25:34.973Z,52.77
2019-01-24T21:28:03.013Z,60.33
2019-01-24T21:30:31.865Z,55.90
2019-01-24T21:32:59.904Z,54.30
2019-01-24T21:35:29.307Z,56.77
2019-01-24T21:37:57.050Z,55.50
2019-01-24T21:40:25.131Z,50.93
2019-01-24T21:42:52.921Z,51.83
2019-01-24T21:45:25.286Z,50.93
2019-01-24T21:47:53.391Z,58.27
2019-01-24T21:50:22.449Z,26.90
2019-01-24T21:52:50.214Z,55.47
2019-01-24T21:55:18.958Z,53.00
2019-01-24T21:57:47.013Z,48.50
2019-01-24T22:00:15.827Z,44.70
2019-01-24T22:02:43.580Z,50.87
2019-01-24T22:05:11.669Z,64.47
2019-01-24T22:07:39.693Z,60.00
2019-01-24T22:10:08.991Z,58.13
2019-01-24T22:12:37.088Z,66.37
2019-01-24T22:15:05.865Z,61.73
2019-01-24T22:17:33.623Z,65.73
2019-01-24T22:20:01.102Z,63.20
2019-01-24T22:22:29.138Z,59.07
2019-01-24T22:24:57.141Z,51.63
2019-01-24T22:27:25.508Z,59.47
2019-01-24T22:29:53.295Z,58.40
2019-01-24T22:32:21.409Z,67.03
2019-01-24T22:34:49.934Z,56.17
2019-01-24T22:37:18.183Z,46.70
2019-01-24T22:39:45.966Z,50.80
2019-01-24T22:42:14.001Z,64.03
2019-01-24T22:44:42.063Z,58.97
2019-01-24T22:47:10.066Z,64.83
2019-01-24T22:49:38.166Z,57.37
2019-01-24T22:52:06.260Z,56.57
2019-01-24T22:54:34.301Z,53.77
2019-01-24T22:57:02.363Z,63.47
2019-01-24T22:59:30.404Z,61.67
2019-01-24T23:02:01.329Z,63.43
2019-01-24T23:04:29.371Z,71.10
2019-01-24T23:06:57.402Z,64.90
2019-01-24T23:09:25.425Z,64.40
2019-01-24T23:11:53.500Z,63.93
2019-01-24T23:14:21.519Z,70.07
2019-01-24T23:16:49.553Z,70.60
2019-01-24T23:19:17.634Z,65.97
2019-01-24T23:21:45.387Z,61.50
2019-01-24T23:24:13.458Z,65.53
2019-01-24T23:26:41.537Z,65.53
2019-01-24T23:29:09.577Z,67.80
2019-01-24T23:31:37.643Z,66.60
2019-01-24T23:34:06.298Z,78.47
2019-01-24T23:36:34.066Z,67.93
2019-01-24T23:39:01.696Z,69.10
2019-01-24T23:41:29.762Z,66.83
2019-01-24T23:43:58.291Z,64.93
2019-01-24T23:46:26.068Z,61.60
2019-01-24T23:48:53.923Z,62.60
2019-01-24T23:51:22.039Z,66.30
2019-01-24T23:53:50.064Z,69.00
2019-01-24T23:56:18.089Z,64.53
2019-01-24T23:58:46.149Z,70.93
